CheckWX is a tool to help pilots better visualize weather data.  It is not intended as a substitute for an official pre-flight weather briefing.

14:08:31 UTC

KTKC METAR
Tracy Municipal Airport
Tracy, Minnesota, USA
Current

1 hour ago

KTKC 191259Z AUTO 30004KT 10SM SCT065 BKN090 M16/M19 A3062 RMK AO2 TSNO
Observed
Feb-19 @ 12:59 UTC
Wind
  • 300° at 4 KTS
Visibility
10 SM
Flight Rules
VFR
Cloud Levels
  • Scattered at 6,500' AGL
  • Broken at 9,000' AGL
Temperature
-16°C / 3°F
Dewpoint
-19°C / -2°F
Humidity
78%
Altimeter
30.62" Hg
Pressure
1036.92 hPa
Previous

2 hours ago

KTKC 191159Z AUTO 31005KT 10SM BKN080 M15/M18 A3061 RMK AO2 TSNO
Observed
Feb-19 @ 11:59 UTC
Wind
  • 310° at 5 KTS
Visibility
10 SM
Flight Rules
VFR
Cloud Levels
  • Broken at 8,000' AGL
Temperature
-15°C / 5°F
Dewpoint
-18°C / -0°F
Humidity
78%
Altimeter
30.61" Hg
Pressure
1036.62 hPa
Previous

3 hours ago

KTKC 191059Z AUTO 32005KT 10SM SCT060 SCT070 BKN110 M15/M18 A3060 RMK AO2 TSNO
Observed
Feb-19 @ 10:59 UTC
Wind
  • 320° at 5 KTS
Visibility
10 SM
Flight Rules
VFR
Cloud Levels
  • Scattered at 6,000' AGL
  • Scattered at 7,000' AGL
  • Broken at 11,000' AGL
Temperature
-15°C / 5°F
Dewpoint
-18°C / -0°F
Humidity
78%
Altimeter
30.6" Hg
Pressure
1036.22 hPa